createdAt,value
2022-12-15T00:02:25.719Z,26.43
2022-12-15T00:05:11.172Z,26.57
2022-12-15T00:07:56.298Z,26.70
2022-12-15T00:10:41.698Z,24.00
2022-12-15T00:13:30.358Z,30.80
2022-12-15T00:16:15.883Z,27.20
2022-12-15T00:19:01.191Z,28.80
2022-12-15T00:21:46.799Z,26.40
2022-12-15T00:24:31.708Z,27.97
2022-12-15T00:27:16.854Z,26.40
2022-12-15T00:30:02.122Z,24.97
2022-12-15T00:32:47.021Z,29.27
2022-12-15T00:35:32.194Z,25.43
2022-12-15T00:38:17.576Z,23.63
2022-12-15T00:40:44.016Z,24.93
2022-12-15T00:43:12.026Z,30.63
2022-12-15T00:45:57.330Z,23.33
2022-12-15T00:48:23.755Z,24.10
2022-12-15T00:50:53.335Z,24.10
2022-12-15T00:53:39.086Z,22.57
2022-12-15T00:56:24.197Z,24.13
2022-12-15T00:59:09.396Z,23.90
2022-12-15T01:01:54.957Z,21.90
2022-12-15T01:04:40.115Z,23.30
2022-12-15T01:07:25.408Z,21.23
2022-12-15T01:10:10.432Z,24.20
2022-12-15T01:12:55.613Z,27.80
2022-12-15T01:15:40.707Z,22.37
2022-12-15T01:18:25.640Z,21.43
2022-12-15T01:20:58.760Z,21.07
2022-12-15T01:23:25.549Z,22.50
2022-12-15T01:25:52.482Z,22.57
2022-12-15T01:28:19.700Z,22.63
2022-12-15T01:30:46.092Z,22.67
2022-12-15T01:33:12.596Z,22.23
2022-12-15T01:35:39.259Z,23.40
2022-12-15T01:38:05.819Z,24.47
2022-12-15T01:40:47.486Z,27.90
2022-12-15T01:43:15.692Z,28.63
2022-12-15T01:45:49.868Z,27.60
2022-12-15T01:48:23.267Z,30.30
2022-12-15T01:50:57.434Z,30.03
2022-12-15T01:53:24.133Z,31.53
2022-12-15T01:55:50.735Z,30.73
2022-12-15T01:58:18.438Z,29.17
2022-12-15T02:00:44.933Z,37.33
2022-12-15T02:03:11.999Z,31.93
2022-12-15T02:05:39.838Z,31.60
2022-12-15T02:08:06.779Z,39.03
2022-12-15T02:10:55.069Z,32.30
2022-12-15T02:13:49.732Z,31.57
2022-12-15T02:16:26.032Z,30.70
2022-12-15T02:18:59.017Z,30.93
2022-12-15T02:21:41.999Z,32.67
2022-12-15T02:24:14.626Z,31.50
2022-12-15T02:26:57.587Z,31.60
2022-12-15T02:29:42.905Z,39.53
2022-12-15T02:32:11.312Z,32.90
2022-12-15T02:34:37.726Z,35.20
2022-12-15T02:37:06.068Z,33.83
2022-12-15T02:39:32.486Z,31.73
2022-12-15T02:41:58.910Z,35.27
2022-12-15T02:44:28.625Z,35.87
2022-12-15T02:47:13.678Z,34.50
2022-12-15T02:49:40.039Z,33.37
2022-12-15T02:52:06.414Z,35.60
2022-12-15T02:54:48.703Z,34.93
2022-12-15T02:57:34.975Z,35.60
2022-12-15T03:00:02.404Z,33.73
2022-12-15T03:02:31.192Z,35.83
2022-12-15T03:04:58.343Z,35.33
2022-12-15T03:07:27.725Z,37.90
2022-12-15T03:10:01.210Z,36.67
2022-12-15T03:12:27.675Z,36.13
2022-12-15T03:14:54.086Z,39.40
2022-12-15T03:17:20.480Z,41.07
2022-12-15T03:19:47.093Z,38.93
2022-12-15T03:22:16.364Z,40.73
2022-12-15T03:24:42.791Z,38.10
2022-12-15T03:27:09.251Z,41.30
2022-12-15T03:29:35.620Z,40.47
2022-12-15T03:32:02.144Z,44.63
2022-12-15T03:34:28.761Z,43.80
2022-12-15T03:36:55.163Z,42.33
2022-12-15T03:39:21.580Z,44.23
2022-12-15T03:41:47.994Z,44.50
2022-12-15T03:44:14.420Z,42.77
2022-12-15T03:46:40.920Z,42.60
2022-12-15T03:49:07.584Z,43.93
2022-12-15T03:51:34.019Z,42.93
2022-12-15T03:54:00.494Z,44.47
2022-12-15T03:56:26.951Z,46.27
2022-12-15T03:58:53.363Z,45.60
2022-12-15T04:01:29.519Z,45.70
2022-12-15T04:04:00.514Z,45.03
2022-12-15T04:06:27.935Z,48.70
2022-12-15T04:08:54.366Z,46.93
2022-12-15T04:11:20.832Z,47.97
2022-12-15T04:13:47.478Z,47.93
2022-12-15T04:16:19.564Z,46.47
2022-12-15T04:18:46.704Z,44.17
2022-12-15T04:21:13.146Z,46.90
2022-12-15T04:23:39.570Z,51.67
2022-12-15T04:26:24.861Z,47.57
2022-12-15T04:29:10.063Z,46.37
2022-12-15T04:31:55.241Z,48.03
2022-12-15T04:34:42.047Z,47.00
2022-12-15T04:37:29.083Z,48.37
2022-12-15T04:40:14.311Z,48.00
2022-12-15T04:43:01.068Z,50.03
2022-12-15T04:45:46.100Z,47.10
2022-12-15T04:48:31.461Z,52.03
2022-12-15T04:51:16.246Z,45.40
2022-12-15T04:54:01.846Z,48.77
2022-12-15T04:56:46.886Z,47.07
2022-12-15T04:59:35.206Z,49.20
2022-12-15T05:02:20.497Z,49.27
2022-12-15T05:05:05.785Z,49.90
2022-12-15T05:07:51.058Z,44.37
2022-12-15T05:10:36.227Z,46.33
2022-12-15T05:13:24.858Z,49.23
2022-12-15T05:16:10.064Z,48.90
2022-12-15T05:18:55.641Z,47.73
2022-12-15T05:21:40.769Z,52.53
2022-12-15T05:24:26.030Z,49.67
2022-12-15T05:27:10.936Z,48.63
2022-12-15T05:29:56.171Z,48.80
2022-12-15T05:32:23.648Z,46.70
2022-12-15T05:34:50.199Z,50.67
2022-12-15T05:37:16.732Z,49.83
2022-12-15T05:39:43.217Z,47.23
2022-12-15T05:42:09.671Z,47.10
2022-12-15T05:44:36.100Z,44.53
2022-12-15T05:47:02.558Z,46.33
2022-12-15T05:49:29.137Z,45.07
2022-12-15T05:51:57.899Z,45.17
2022-12-15T05:54:24.398Z,46.50
2022-12-15T05:56:50.863Z,45.87
2022-12-15T05:59:17.592Z,48.30
2022-12-15T06:01:44.195Z,46.97
2022-12-15T06:04:12.643Z,48.77
2022-12-15T06:06:39.824Z,47.37
2022-12-15T06:09:06.302Z,47.20
2022-12-15T06:11:32.778Z,44.73
2022-12-15T06:13:59.262Z,44.97
2022-12-15T06:16:30.411Z,45.47
2022-12-15T06:18:58.751Z,46.67
2022-12-15T06:21:28.902Z,46.33
2022-12-15T06:23:56.004Z,47.00
2022-12-15T06:26:25.665Z,46.23
2022-12-15T06:28:52.784Z,42.83
2022-12-15T06:31:22.840Z,41.50
2022-12-15T06:33:51.042Z,36.53
2022-12-15T06:36:19.049Z,36.53
2022-12-15T06:38:46.232Z,35.57
2022-12-15T06:41:17.611Z,35.77
2022-12-15T06:43:51.611Z,33.53
2022-12-15T06:46:18.787Z,31.50
2022-12-15T06:48:46.138Z,32.53
2022-12-15T06:51:17.117Z,32.23
2022-12-15T06:53:54.082Z,30.27
2022-12-15T06:56:30.616Z,31.37
2022-12-15T06:58:59.996Z,30.43
2022-12-15T07:01:28.076Z,30.73
2022-12-15T07:03:55.374Z,28.50
2022-12-15T07:06:24.957Z,31.70
2022-12-15T07:08:52.543Z,32.37
2022-12-15T07:11:20.755Z,38.33
2022-12-15T07:13:53.660Z,32.23
2022-12-15T07:16:21.314Z,32.63
2022-12-15T07:18:47.813Z,32.43
2022-12-15T07:21:14.392Z,32.63
2022-12-15T07:23:54.176Z,34.10
2022-12-15T07:26:21.822Z,34.60
2022-12-15T07:28:48.302Z,34.40
2022-12-15T07:31:15.617Z,32.30
2022-12-15T07:33:42.503Z,29.57
2022-12-15T07:36:09.092Z,31.13
2022-12-15T07:38:35.884Z,33.70
2022-12-15T07:41:03.695Z,32.87
2022-12-15T07:43:31.385Z,31.93
2022-12-15T07:45:58.551Z,35.60
2022-12-15T07:48:25.378Z,32.23
2022-12-15T07:51:04.958Z,32.33
2022-12-15T07:53:34.984Z,31.63
2022-12-15T07:56:10.134Z,35.60
2022-12-15T07:58:38.590Z,33.93
2022-12-15T08:01:06.729Z,33.27
2022-12-15T08:03:34.669Z,35.37
2022-12-15T08:06:05.719Z,40.30
2022-12-15T08:08:33.428Z,43.47
2022-12-15T08:11:03.809Z,41.60
2022-12-15T08:14:01.329Z,39.90
2022-12-15T08:16:17.194Z,41.53
2022-12-15T08:18:43.776Z,47.77
2022-12-15T08:21:10.675Z,48.60
2022-12-15T08:23:37.734Z,46.80
2022-12-15T08:26:06.117Z,48.93
2022-12-15T08:28:32.943Z,45.03
2022-12-15T08:31:07.003Z,44.73
2022-12-15T08:33:34.244Z,45.20
2022-12-15T08:36:02.974Z,49.37
2022-12-15T08:38:30.029Z,49.13
2022-12-15T08:40:57.094Z,47.97
2022-12-15T08:43:23.932Z,47.20
2022-12-15T08:45:50.486Z,45.93
2022-12-15T08:48:17.215Z,46.50
2022-12-15T08:50:46.885Z,51.90
2022-12-15T08:53:30.828Z,49.83
2022-12-15T08:56:08.163Z,49.23
2022-12-15T08:58:34.813Z,48.07
2022-12-15T09:01:06.475Z,49.40
2022-12-15T09:03:34.293Z,49.60
2022-12-15T09:06:05.579Z,49.33
2022-12-15T09:08:32.518Z,54.57
2022-12-15T09:10:59.574Z,50.43
2022-12-15T09:13:26.431Z,46.10
2022-12-15T09:16:12.496Z,51.67
2022-12-15T09:18:41.189Z,49.53
2022-12-15T09:21:08.785Z,48.67
2022-12-15T09:23:36.626Z,48.27
2022-12-15T09:26:04.898Z,47.87
2022-12-15T09:28:32.090Z,49.07
2022-12-15T09:31:03.222Z,48.47
2022-12-15T09:33:30.169Z,49.07
2022-12-15T09:35:57.024Z,53.37
2022-12-15T09:38:24.629Z,51.17
2022-12-15T09:40:51.345Z,50.83
2022-12-15T09:43:34.481Z,46.90
2022-12-15T09:46:05.875Z,49.03
2022-12-15T09:48:36.469Z,49.33
2022-12-15T09:51:04.406Z,46.53
2022-12-15T09:53:54.294Z,47.40
2022-12-15T09:56:20.774Z,48.00
2022-12-15T09:58:57.402Z,53.90
2022-12-15T10:01:30.165Z,49.07
2022-12-15T10:04:05.409Z,49.53
2022-12-15T10:06:52.093Z,49.07
2022-12-15T10:09:20.843Z,48.70
2022-12-15T10:11:52.104Z,51.23
2022-12-15T10:14:30.477Z,52.27
2022-12-15T10:17:00.187Z,51.07
2022-12-15T10:19:29.679Z,54.40
2022-12-15T10:21:57.619Z,53.07
2022-12-15T10:25:07.378Z,56.90
2022-12-15T10:27:18.407Z,52.57
2022-12-15T10:29:50.874Z,51.60
2022-12-15T10:32:21.343Z,47.43
2022-12-15T10:34:49.011Z,49.20
2022-12-15T10:37:18.589Z,48.33
2022-12-15T10:39:47.093Z,51.30
2022-12-15T10:42:20.918Z,49.30
2022-12-15T10:44:51.534Z,49.13
2022-12-15T10:47:18.076Z,51.80
2022-12-15T10:49:45.967Z,51.33
2022-12-15T10:52:32.337Z,49.83
2022-12-15T10:54:58.953Z,51.93
2022-12-15T10:57:30.855Z,51.77
2022-12-15T11:00:19.007Z,55.43
2022-12-15T11:02:45.659Z,51.07
2022-12-15T11:05:15.936Z,52.70
2022-12-15T11:07:44.651Z,50.57
2022-12-15T11:10:25.151Z,53.27
2022-12-15T11:13:01.972Z,52.97
2022-12-15T11:15:40.029Z,51.93
2022-12-15T11:18:25.439Z,54.50
2022-12-15T11:21:01.407Z,57.00
2022-12-15T11:23:46.634Z,54.33
2022-12-15T11:26:30.985Z,56.77
2022-12-15T11:29:02.692Z,54.37
2022-12-15T11:31:33.010Z,59.03
2022-12-15T11:34:00.914Z,58.73
2022-12-15T11:36:30.519Z,58.57
2022-12-15T11:39:04.150Z,62.13
2022-12-15T11:41:50.552Z,59.03
2022-12-15T11:44:29.378Z,60.77
2022-12-15T11:47:05.269Z,57.17
2022-12-15T11:49:58.458Z,57.97
2022-12-15T11:52:39.778Z,57.53
2022-12-15T11:58:24.290Z,60.00
2022-12-15T12:00:55.618Z,53.47
2022-12-15T12:03:26.318Z,53.13
2022-12-15T12:06:07.659Z,50.23
2022-12-15T12:08:51.378Z,49.43
2022-12-15T12:11:56.494Z,49.47
2022-12-15T12:14:41.282Z,50.57
2022-12-15T12:17:16.533Z,51.57
2022-12-15T12:19:45.863Z,52.33
2022-12-15T12:22:28.159Z,47.60
2022-12-15T12:25:06.874Z,50.60
2022-12-15T12:27:41.350Z,49.77
2022-12-15T12:30:23.933Z,51.70
2022-12-15T12:33:11.640Z,52.67
2022-12-15T12:35:42.458Z,49.77
2022-12-15T12:38:13.311Z,50.30
2022-12-15T12:40:41.440Z,49.80
2022-12-15T12:43:13.653Z,50.97
2022-12-15T12:45:40.839Z,48.10
2022-12-15T12:48:09.760Z,47.97
2022-12-15T12:50:36.264Z,51.43
2022-12-15T12:53:03.335Z,51.63
2022-12-15T12:55:37.717Z,56.03
2022-12-15T12:58:04.356Z,56.40
2022-12-15T13:00:31.784Z,54.30
2022-12-15T13:03:19.712Z,50.17
2022-12-15T13:05:50.383Z,50.37
2022-12-15T13:08:19.060Z,52.37
2022-12-15T13:10:47.252Z,51.17
2022-12-15T13:13:29.506Z,52.80
2022-12-15T13:16:06.021Z,50.83
2022-12-15T13:18:52.497Z,50.30
2022-12-15T13:21:45.230Z,51.43
2022-12-15T13:24:32.089Z,50.47
2022-12-15T13:27:13.694Z,48.63
2022-12-15T13:29:58.994Z,48.07
2022-12-15T13:32:33.343Z,50.60
2022-12-15T13:35:06.086Z,47.87
2022-12-15T13:37:51.191Z,47.93
2022-12-15T13:40:26.760Z,47.57
2022-12-15T13:42:58.838Z,47.23
2022-12-15T13:45:41.962Z,47.17
2022-12-15T13:48:14.264Z,49.07
2022-12-15T13:50:45.676Z,46.47
2022-12-15T13:53:20.960Z,46.13
2022-12-15T13:55:58.358Z,48.57
2022-12-15T13:58:25.868Z,47.37
2022-12-15T14:00:54.455Z,49.90
2022-12-15T14:03:21.401Z,48.77
2022-12-15T14:05:59.314Z,49.37
2022-12-15T14:08:27.428Z,48.17
2022-12-15T14:10:57.356Z,47.53
2022-12-15T14:13:31.522Z,46.40
2022-12-15T14:15:59.689Z,49.23
2022-12-15T14:18:31.147Z,46.80
2022-12-15T14:20:58.247Z,46.13
2022-12-15T14:23:31.525Z,46.73
2022-12-15T14:26:04.766Z,47.87
2022-12-15T14:28:33.991Z,47.40
2022-12-15T14:31:03.489Z,47.27
2022-12-15T14:33:31.709Z,48.40
2022-12-15T14:35:59.672Z,48.20
2022-12-15T14:38:27.814Z,49.53
2022-12-15T14:40:56.205Z,50.37
2022-12-15T14:43:24.771Z,49.67
2022-12-15T14:45:54.146Z,48.57
2022-12-15T14:48:42.416Z,46.10
2022-12-15T14:51:11.039Z,49.20
2022-12-15T14:53:39.108Z,46.03
2022-12-15T14:56:12.889Z,44.37
2022-12-15T14:58:39.895Z,44.13
2022-12-15T15:01:24.523Z,43.53
2022-12-15T15:03:06.970Z,56.87
2022-12-15T15:04:02.574Z,45.53
2022-12-15T15:06:37.018Z,45.43
2022-12-15T15:09:24.172Z,44.57
2022-12-15T15:11:54.619Z,42.77
2022-12-15T15:14:26.726Z,44.00
2022-12-15T15:16:59.275Z,46.83
2022-12-15T15:19:25.845Z,44.40
2022-12-15T15:21:52.414Z,46.53
2022-12-15T15:24:39.523Z,49.67
2022-12-15T15:27:25.024Z,42.63
2022-12-15T15:29:55.440Z,43.60
2022-12-15T15:32:22.967Z,42.30
2022-12-15T15:34:49.771Z,43.20
2022-12-15T15:37:20.999Z,43.67
2022-12-15T15:39:48.461Z,42.47
2022-12-15T15:42:15.138Z,44.67
2022-12-15T15:44:43.178Z,44.10
2022-12-15T15:47:18.047Z,46.53
2022-12-15T15:49:45.363Z,45.80
2022-12-15T15:52:12.854Z,52.50
2022-12-15T15:54:39.485Z,45.87
2022-12-15T15:57:05.971Z,44.80
2022-12-15T15:59:32.642Z,45.60
2022-12-15T16:01:59.788Z,53.17
2022-12-15T16:04:26.446Z,50.30
2022-12-15T16:06:53.278Z,46.90
2022-12-15T16:09:19.939Z,50.17
2022-12-15T16:11:46.522Z,51.90
2022-12-15T16:14:14.294Z,52.37
2022-12-15T16:16:41.903Z,50.03
2022-12-15T16:19:08.542Z,51.00
2022-12-15T16:21:35.487Z,47.70
2022-12-15T16:24:17.674Z,47.03
2022-12-15T16:26:47.255Z,47.93
2022-12-15T16:29:18.570Z,47.57
2022-12-15T16:31:45.868Z,47.57
2022-12-15T16:34:12.963Z,47.73
2022-12-15T16:36:39.847Z,45.90
2022-12-15T16:39:18.226Z,51.60
2022-12-15T16:41:44.862Z,44.57
2022-12-15T16:44:11.463Z,47.67
2022-12-15T16:46:38.443Z,43.63
2022-12-15T16:49:05.243Z,50.53
2022-12-15T16:51:37.569Z,47.30
2022-12-15T16:54:04.207Z,44.40
2022-12-15T16:56:30.718Z,46.13
2022-12-15T16:59:30.924Z,44.63
2022-12-15T17:01:46.699Z,46.53
2022-12-15T17:04:13.847Z,44.13
2022-12-15T17:06:40.414Z,49.63
2022-12-15T17:09:08.831Z,43.97
2022-12-15T17:11:38.457Z,44.67
2022-12-15T17:14:06.790Z,43.20
2022-12-15T17:16:33.438Z,44.97
2022-12-15T17:18:59.917Z,45.20
2022-12-15T17:21:28.706Z,46.37
2022-12-15T17:23:56.614Z,43.60
2022-12-15T17:26:30.684Z,47.63
2022-12-15T17:28:59.673Z,45.63
2022-12-15T17:31:35.230Z,53.43
2022-12-15T17:34:13.511Z,46.03
2022-12-15T17:36:40.160Z,43.00
2022-12-15T17:39:09.741Z,44.43
2022-12-15T17:41:58.781Z,44.17
2022-12-15T17:44:32.889Z,51.43
2022-12-15T17:47:01.333Z,47.43
2022-12-15T17:49:34.700Z,48.43
2022-12-15T17:52:03.092Z,43.27
2022-12-15T17:54:29.742Z,47.77
2022-12-15T17:56:56.138Z,45.30
2022-12-15T17:59:22.833Z,46.80
2022-12-15T18:01:49.457Z,44.60
2022-12-15T18:04:16.173Z,42.93
2022-12-15T18:06:44.026Z,50.50
2022-12-15T18:09:13.933Z,47.37
2022-12-15T18:11:40.545Z,44.37
2022-12-15T18:14:14.668Z,43.47
2022-12-15T18:16:41.514Z,44.73
2022-12-15T18:19:08.210Z,45.67
2022-12-15T18:21:34.799Z,51.07
2022-12-15T18:24:01.387Z,43.67
2022-12-15T18:26:28.059Z,42.67
2022-12-15T18:28:54.580Z,44.03
2022-12-15T18:31:25.749Z,51.57
2022-12-15T18:33:52.973Z,45.30
2022-12-15T18:36:20.206Z,45.30
2022-12-15T18:38:46.640Z,41.93
2022-12-15T18:41:14.026Z,42.73
2022-12-15T18:43:41.217Z,43.27
2022-12-15T18:46:13.895Z,41.70
2022-12-15T18:48:40.946Z,41.07
2022-12-15T18:51:17.919Z,41.80
2022-12-15T18:53:45.015Z,39.43
2022-12-15T18:56:13.599Z,37.67
2022-12-15T18:58:40.279Z,43.10
2022-12-15T19:01:07.414Z,40.90
2022-12-15T19:03:35.710Z,39.67
2022-12-15T19:06:26.166Z,40.87
2022-12-15T19:08:52.847Z,40.57
2022-12-15T19:11:22.038Z,39.67
2022-12-15T19:13:50.923Z,39.60
2022-12-15T19:16:18.948Z,40.83
2022-12-15T19:19:04.396Z,38.37
2022-12-15T19:21:50.716Z,38.77
2022-12-15T19:24:47.554Z,39.40
2022-12-15T19:27:16.135Z,37.53
2022-12-15T19:29:43.044Z,39.30
2022-12-15T19:32:09.563Z,38.40
2022-12-15T19:34:36.084Z,43.60
2022-12-15T19:37:03.674Z,44.13
2022-12-15T19:39:32.548Z,43.70
2022-12-15T19:41:59.233Z,41.70
2022-12-15T19:44:26.268Z,42.80
2022-12-15T19:46:52.792Z,46.63
2022-12-15T19:49:19.415Z,43.90
2022-12-15T19:51:46.127Z,44.97
2022-12-15T19:54:17.154Z,41.40
2022-12-15T19:56:44.056Z,44.47
2022-12-15T19:59:22.331Z,43.13
2022-12-15T20:01:51.712Z,42.83
2022-12-15T20:04:22.423Z,53.93
2022-12-15T20:06:50.585Z,41.93
2022-12-15T20:09:20.476Z,42.50
2022-12-15T20:11:47.025Z,42.37
2022-12-15T20:14:14.690Z,39.63
2022-12-15T20:16:41.308Z,51.53
2022-12-15T20:19:07.772Z,40.90
2022-12-15T20:21:35.726Z,39.57
2022-12-15T20:24:07.576Z,38.53
2022-12-15T20:26:34.819Z,39.87
2022-12-15T20:29:01.434Z,53.20
2022-12-15T20:31:28.146Z,45.63
2022-12-15T20:33:54.655Z,44.07
2022-12-15T20:36:24.586Z,47.83
2022-12-15T20:38:51.845Z,51.50
2022-12-15T20:41:19.920Z,52.10
2022-12-15T20:43:46.523Z,63.67
2022-12-15T20:46:19.374Z,50.13
2022-12-15T20:48:46.353Z,46.93
2022-12-15T20:51:15.693Z,58.33
2022-12-15T20:53:43.776Z,51.17
2022-12-15T20:56:10.540Z,48.73
2022-12-15T20:58:39.934Z,48.87
2022-12-15T21:01:20.484Z,43.50
2022-12-15T21:03:47.744Z,52.30
2022-12-15T21:06:14.666Z,47.77
2022-12-15T21:08:41.403Z,40.10
2022-12-15T21:11:15.638Z,40.90
2022-12-15T21:13:42.228Z,42.20
2022-12-15T21:16:14.517Z,39.13
2022-12-15T21:19:11.358Z,40.90
2022-12-15T21:21:34.974Z,40.70
2022-12-15T21:24:05.084Z,38.93
2022-12-15T21:26:32.230Z,39.37
2022-12-15T21:28:59.395Z,36.23
2022-12-15T21:31:26.158Z,38.70
2022-12-15T21:33:53.001Z,38.07
2022-12-15T21:36:21.577Z,37.50
2022-12-15T21:38:51.893Z,36.47
2022-12-15T21:41:19.441Z,39.43
2022-12-15T21:43:46.684Z,38.73
2022-12-15T21:46:14.994Z,38.93
2022-12-15T21:49:00.662Z,40.90
2022-12-15T21:51:28.435Z,48.10
2022-12-15T21:53:55.054Z,40.30
2022-12-15T21:56:21.565Z,38.30
2022-12-15T21:58:51.024Z,35.20
2022-12-15T22:01:27.638Z,46.30
2022-12-15T22:03:55.447Z,41.17
2022-12-15T22:06:27.362Z,37.43
2022-12-15T22:08:54.732Z,34.43
2022-12-15T22:11:23.216Z,38.50
2022-12-15T22:13:50.418Z,40.70
2022-12-15T22:16:18.126Z,39.63
2022-12-15T22:18:48.546Z,47.87
2022-12-15T22:21:15.549Z,31.80
2022-12-15T22:23:42.063Z,38.37
2022-12-15T22:26:15.456Z,35.10
2022-12-15T22:28:41.975Z,36.40
2022-12-15T22:31:09.317Z,35.13
2022-12-15T22:33:35.801Z,36.23
2022-12-15T22:36:02.251Z,35.50
2022-12-15T22:38:29.012Z,36.20
2022-12-15T22:40:57.104Z,38.00
2022-12-15T22:43:36.061Z,39.13
2022-12-15T22:46:03.491Z,35.43
2022-12-15T22:48:33.000Z,38.23
2022-12-15T22:51:00.317Z,38.73
2022-12-15T22:53:29.324Z,47.33
2022-12-15T22:55:55.919Z,43.83
2022-12-15T22:58:25.749Z,39.07
2022-12-15T23:00:56.606Z,45.50
2022-12-15T23:03:23.388Z,40.30
2022-12-15T23:05:49.975Z,36.07
2022-12-15T23:08:16.462Z,38.33
2022-12-15T23:11:01.772Z,37.00
2022-12-15T23:13:28.198Z,35.33
2022-12-15T23:16:13.609Z,36.13
2022-12-15T23:18:40.107Z,45.77
2022-12-15T23:21:08.094Z,37.67
2022-12-15T23:23:35.373Z,35.60
2022-12-15T23:26:02.112Z,32.97
2022-12-15T23:28:28.609Z,34.37
2022-12-15T23:30:55.572Z,33.73
2022-12-15T23:33:22.238Z,35.63
2022-12-15T23:35:48.732Z,46.13
2022-12-15T23:38:15.824Z,35.83
2022-12-15T23:40:49.565Z,34.20
2022-12-15T23:43:19.481Z,33.70
2022-12-15T23:45:46.240Z,34.47
2022-12-15T23:48:13.741Z,44.80
2022-12-15T23:50:40.183Z,34.27
2022-12-15T23:53:07.168Z,36.53
2022-12-15T23:55:35.372Z,36.27
2022-12-15T23:58:01.899Z,35.60
